createdAt,value
2023-04-18T00:00:10.524Z,74.97
2023-04-18T00:02:43.992Z,75.13
2023-04-18T00:05:18.142Z,75.26
2023-04-18T00:07:45.470Z,75.58
2023-04-18T00:10:12.871Z,75.48
2023-04-18T00:12:40.073Z,75.42
2023-04-18T00:15:08.871Z,75.15
2023-04-18T00:17:38.839Z,75.17
2023-04-18T00:20:10.432Z,75.33
2023-04-18T00:22:46.434Z,75.06
2023-04-18T00:25:13.468Z,74.91
2023-04-18T00:27:41.766Z,74.88
2023-04-18T00:30:09.746Z,74.83
2023-04-18T00:32:38.538Z,75.23
2023-04-18T00:35:06.339Z,75.27
2023-04-18T00:37:33.260Z,75.00
2023-04-18T00:40:00.260Z,74.94
2023-04-18T00:42:28.780Z,74.84
2023-04-18T00:44:55.903Z,75.12
2023-04-18T00:47:22.901Z,75.05
2023-04-18T00:49:50.125Z,75.17
2023-04-18T00:52:18.522Z,74.82
2023-04-18T00:54:47.253Z,74.85
2023-04-18T00:57:14.829Z,74.63
2023-04-18T00:59:42.485Z,74.52
2023-04-18T01:02:09.454Z,74.83
2023-04-18T01:04:37.257Z,74.54
2023-04-18T01:07:04.669Z,74.97
2023-04-18T01:09:31.819Z,74.56
2023-04-18T01:11:58.801Z,74.60
2023-04-18T01:14:25.779Z,74.68
2023-04-18T01:16:53.158Z,74.98
2023-04-18T01:19:20.666Z,74.92
2023-04-18T01:21:47.916Z,74.71
2023-04-18T01:24:17.534Z,75.01
2023-04-18T01:26:47.557Z,74.84
2023-04-18T01:29:14.850Z,74.66
2023-04-18T01:31:42.062Z,74.64
2023-04-18T01:34:09.232Z,74.43
2023-04-18T01:36:38.378Z,74.66
2023-04-18T01:39:05.472Z,74.59
2023-04-18T01:41:32.796Z,74.59
2023-04-18T01:44:00.619Z,74.94
2023-04-18T01:46:28.724Z,74.68
2023-04-18T01:48:56.638Z,74.61
2023-04-18T01:51:23.862Z,74.94
2023-04-18T01:53:51.075Z,74.89
2023-04-18T01:56:18.143Z,74.88
2023-04-18T01:58:45.230Z,74.59
2023-04-18T02:01:13.345Z,74.84
2023-04-18T02:03:40.646Z,74.79
2023-04-18T02:06:08.167Z,74.56
2023-04-18T02:08:35.856Z,74.59
2023-04-18T02:11:05.573Z,74.97
2023-04-18T02:13:32.766Z,74.62
2023-04-18T02:15:59.897Z,74.73
2023-04-18T02:18:27.335Z,74.80
2023-04-18T02:20:54.427Z,74.83
2023-04-18T02:23:22.568Z,74.74
2023-04-18T02:25:50.656Z,75.11
2023-04-18T02:28:18.074Z,74.92
2023-04-18T02:30:45.091Z,74.97
2023-04-18T02:33:12.013Z,75.18
2023-04-18T02:35:38.987Z,75.00
2023-04-18T02:38:06.410Z,75.33
2023-04-18T02:40:33.352Z,75.30
2023-04-18T02:43:01.321Z,74.83
2023-04-18T02:45:28.645Z,75.15
2023-04-18T02:47:58.259Z,75.32
2023-04-18T02:50:25.385Z,75.11
2023-04-18T02:52:54.372Z,74.88
2023-04-18T02:55:26.756Z,75.09
2023-04-18T02:57:56.953Z,74.94
2023-04-18T03:00:24.121Z,74.88
2023-04-18T03:03:29.341Z,75.26
2023-04-18T03:06:07.405Z,75.24
2023-04-18T03:08:34.677Z,74.95
2023-04-18T03:11:01.690Z,75.15
2023-04-18T03:13:30.575Z,75.16
2023-04-18T03:15:57.677Z,75.12
2023-04-18T03:18:25.050Z,74.95
2023-04-18T03:20:55.630Z,74.84
2023-04-18T03:23:22.587Z,75.18
2023-04-18T03:25:49.630Z,75.09
2023-04-18T03:28:16.713Z,74.72
2023-04-18T03:30:44.232Z,74.61
2023-04-18T03:33:11.168Z,74.77
2023-04-18T03:35:38.540Z,74.70
2023-04-18T03:38:05.670Z,74.74
2023-04-18T03:40:37.962Z,74.88
2023-04-18T03:43:11.460Z,74.94
2023-04-18T03:45:38.550Z,74.54
2023-04-18T03:48:07.085Z,74.88
2023-04-18T03:50:37.933Z,74.67
2023-04-18T03:53:08.410Z,74.53
2023-04-18T03:55:36.695Z,74.49
2023-04-18T03:58:03.719Z,74.47
2023-04-18T04:00:30.836Z,74.83
2023-04-18T04:03:04.073Z,74.54
2023-04-18T04:05:31.194Z,74.78
2023-04-18T04:07:58.166Z,74.66
2023-04-18T04:10:25.179Z,74.81
2023-04-18T04:12:53.562Z,74.42
2023-04-18T04:15:20.738Z,74.53
2023-04-18T04:17:53.356Z,74.89
2023-04-18T04:20:24.604Z,74.44
2023-04-18T04:22:58.825Z,74.34
2023-04-18T04:25:29.633Z,74.48
2023-04-18T04:28:01.333Z,74.41
2023-04-18T04:30:28.612Z,74.75
2023-04-18T04:32:56.231Z,74.78
2023-04-18T04:35:23.265Z,74.38
2023-04-18T04:37:51.672Z,74.80
2023-04-18T04:40:25.204Z,74.45
2023-04-18T04:42:56.134Z,74.36
2023-04-18T04:45:29.668Z,74.42
2023-04-18T04:47:56.745Z,74.77
2023-04-18T04:50:23.783Z,74.66
2023-04-18T04:52:50.967Z,74.68
2023-04-18T04:55:18.840Z,74.63
2023-04-18T04:57:45.989Z,74.64
2023-04-18T05:00:26.996Z,74.95
2023-04-18T05:02:55.705Z,74.85
2023-04-18T05:05:23.621Z,75.16
2023-04-18T05:07:50.791Z,75.17
2023-04-18T05:10:17.818Z,74.88
2023-04-18T05:12:44.781Z,75.31
2023-04-18T05:15:12.497Z,75.17
2023-04-18T05:17:39.493Z,75.27
2023-04-18T05:20:07.198Z,75.38
2023-04-18T05:22:34.249Z,75.64
2023-04-18T05:25:01.408Z,75.44
2023-04-18T05:27:28.477Z,75.65
2023-04-18T05:29:55.783Z,75.66
2023-04-18T05:32:22.779Z,75.64
2023-04-18T05:34:49.701Z,75.82
2023-04-18T05:37:16.860Z,75.82
2023-04-18T05:39:43.867Z,76.05
2023-04-18T05:42:10.803Z,75.60
2023-04-18T05:44:37.766Z,76.01
2023-04-18T05:47:07.938Z,76.12
2023-04-18T05:49:34.931Z,76.07
2023-04-18T05:52:01.980Z,76.05
2023-04-18T05:54:29.002Z,76.19
2023-04-18T05:56:57.091Z,76.34
2023-04-18T05:59:24.472Z,76.48
2023-04-18T06:01:51.402Z,76.48
2023-04-18T06:04:20.293Z,76.23
2023-04-18T06:06:48.755Z,76.46
2023-04-18T06:09:15.650Z,76.43
2023-04-18T06:11:42.608Z,76.74
2023-04-18T06:14:09.540Z,76.55
2023-04-18T06:16:37.466Z,76.43
2023-04-18T06:19:05.237Z,76.41
2023-04-18T06:21:32.275Z,76.59
2023-04-18T06:24:01.189Z,76.77
2023-04-18T06:26:28.272Z,76.45
2023-04-18T06:28:55.801Z,76.40
2023-04-18T06:31:22.976Z,76.75
2023-04-18T06:33:49.919Z,76.69
2023-04-18T06:36:16.898Z,76.48
2023-04-18T06:38:43.892Z,76.81
2023-04-18T06:41:10.839Z,76.82
2023-04-18T06:43:37.753Z,77.23
2023-04-18T06:46:06.080Z,77.33
2023-04-18T06:48:33.297Z,77.04
2023-04-18T06:51:00.309Z,77.35
2023-04-18T06:53:27.243Z,77.62
2023-04-18T06:55:54.280Z,77.17
2023-04-18T06:58:21.262Z,77.35
2023-04-18T07:00:51.798Z,77.44
2023-04-18T07:03:19.063Z,77.37
2023-04-18T07:05:46.220Z,77.38
2023-04-18T07:08:13.188Z,77.48
2023-04-18T07:10:40.984Z,77.64
2023-04-18T07:13:07.917Z,77.68
2023-04-18T07:15:36.053Z,77.28
2023-04-18T07:18:03.132Z,77.30
2023-04-18T07:20:30.045Z,77.33
2023-04-18T07:22:56.953Z,77.43
2023-04-18T07:25:23.867Z,77.37
2023-04-18T07:27:50.815Z,77.32
2023-04-18T07:30:18.857Z,77.46
2023-04-18T07:32:47.195Z,77.54
2023-04-18T07:35:14.159Z,77.64
2023-04-18T07:37:41.186Z,77.96
2023-04-18T07:40:08.749Z,78.05
2023-04-18T07:42:35.695Z,77.78
2023-04-18T07:45:02.740Z,77.60
2023-04-18T07:47:31.223Z,77.88
2023-04-18T07:49:58.878Z,77.79
2023-04-18T07:52:26.209Z,77.45
2023-04-18T07:54:53.141Z,77.58
2023-04-18T07:57:20.352Z,77.43
2023-04-18T07:59:47.425Z,77.30
2023-04-18T08:02:14.462Z,77.44
2023-04-18T08:04:41.541Z,78.04
2023-04-18T08:07:08.722Z,77.99
2023-04-18T08:09:35.630Z,77.85
2023-04-18T08:12:02.707Z,78.17
2023-04-18T08:14:29.630Z,78.25
2023-04-18T08:16:56.659Z,77.66
2023-04-18T08:19:24.209Z,77.81
2023-04-18T08:21:52.086Z,77.96
2023-04-18T08:24:19.233Z,78.15
2023-04-18T08:26:46.270Z,77.98
2023-04-18T08:29:13.444Z,78.01
2023-04-18T08:31:40.707Z,78.34
2023-04-18T08:34:07.645Z,78.37
2023-04-18T08:36:35.512Z,78.15
2023-04-18T08:39:02.565Z,78.30
2023-04-18T08:41:40.106Z,78.15
2023-04-18T08:44:07.390Z,78.53
2023-04-18T08:46:35.817Z,78.38
2023-04-18T08:49:06.151Z,78.90
2023-04-18T08:51:33.269Z,78.75
2023-04-18T08:54:04.365Z,78.65
2023-04-18T08:56:31.867Z,79.14
2023-04-18T08:59:00.297Z,79.67
2023-04-18T09:01:56.497Z,79.66
2023-04-18T09:04:39.766Z,79.40
2023-04-18T09:07:18.194Z,79.63
2023-04-18T09:09:52.833Z,79.10
2023-04-18T09:12:23.218Z,78.75
2023-04-18T09:14:57.603Z,78.66
2023-04-18T09:17:43.451Z,79.65
2023-04-18T09:20:12.400Z,79.12
2023-04-18T09:22:57.714Z,79.06
2023-04-18T09:25:45.087Z,78.86
2023-04-18T09:28:29.334Z,79.12
2023-04-18T09:31:17.664Z,79.50
2023-04-18T09:33:54.548Z,79.55
2023-04-18T09:36:24.822Z,78.82
2023-04-18T09:38:56.346Z,79.21
2023-04-18T09:41:24.275Z,77.45
2023-04-18T09:44:14.608Z,78.74
2023-04-18T09:46:44.473Z,78.17
2023-04-18T09:49:13.360Z,78.36
2023-04-18T09:51:41.559Z,78.30
2023-04-18T09:54:11.397Z,78.56
2023-04-18T09:56:41.855Z,79.17
2023-04-18T09:59:09.877Z,79.51
2023-04-18T10:01:37.802Z,78.35
2023-04-18T10:04:08.619Z,78.22
2023-04-18T10:06:41.791Z,78.69
2023-04-18T10:09:09.865Z,78.57
2023-04-18T10:11:37.317Z,78.46
2023-04-18T10:14:12.907Z,77.16
2023-04-18T10:16:40.770Z,78.15
2023-04-18T10:19:21.640Z,77.60
2023-04-18T10:21:52.850Z,78.83
2023-04-18T10:24:55.960Z,79.14
2023-04-18T10:27:56.858Z,79.55
2023-04-18T10:30:44.338Z,78.48
2023-04-18T10:33:35.376Z,77.81
2023-04-18T10:36:09.059Z,75.06
2023-04-18T10:38:45.277Z,77.39
2023-04-18T10:41:26.224Z,76.64
2023-04-18T10:44:08.961Z,78.23
2023-04-18T10:46:38.291Z,77.62
2023-04-18T10:49:22.883Z,78.49
2023-04-18T10:52:00.016Z,77.12
2023-04-18T10:54:46.980Z,75.56
2023-04-18T10:57:15.079Z,76.76
2023-04-18T10:59:44.696Z,75.42
2023-04-18T11:02:28.851Z,75.64
2023-04-18T11:05:02.845Z,76.52
2023-04-18T11:07:36.808Z,76.99
2023-04-18T11:10:08.485Z,76.06
2023-04-18T11:12:40.733Z,76.92
2023-04-18T11:15:21.987Z,77.58
2023-04-18T11:18:03.882Z,75.37
2023-04-18T11:20:40.073Z,73.23
2023-04-18T11:23:18.627Z,73.97
2023-04-18T11:25:46.956Z,73.35
2023-04-18T11:28:21.127Z,74.37
2023-04-18T11:30:48.557Z,75.13
2023-04-18T11:33:16.558Z,76.75
2023-04-18T11:35:45.784Z,77.28
2023-04-18T11:38:14.765Z,76.50
2023-04-18T11:40:49.139Z,76.36
2023-04-18T11:43:22.702Z,74.90
2023-04-18T11:45:55.113Z,74.50
2023-04-18T11:48:22.963Z,73.93
2023-04-18T11:50:50.601Z,70.82
2023-04-18T11:53:34.276Z,74.55
2023-04-18T11:56:03.434Z,73.86
2023-04-18T11:58:34.890Z,74.69
2023-04-18T12:01:23.049Z,74.27
2023-04-18T12:04:07.418Z,73.49
2023-04-18T12:06:53.387Z,74.73
2023-04-18T12:09:25.045Z,70.54
2023-04-18T12:11:59.478Z,70.48
2023-04-18T12:14:27.194Z,71.85
2023-04-18T12:16:54.684Z,70.96
2023-04-18T12:19:28.039Z,71.73
2023-04-18T12:22:06.563Z,69.42
2023-04-18T12:24:33.846Z,71.57
2023-04-18T12:27:01.085Z,70.54
2023-04-18T12:29:29.363Z,70.91
2023-04-18T12:31:56.638Z,69.95
2023-04-18T12:34:23.819Z,70.35
2023-04-18T12:36:50.925Z,69.65
2023-04-18T12:39:17.869Z,70.43
2023-04-18T12:41:44.852Z,70.14
2023-04-18T12:44:12.338Z,70.01
2023-04-18T12:46:39.659Z,67.95
2023-04-18T12:49:06.657Z,69.25
2023-04-18T12:51:33.681Z,66.83
2023-04-18T12:54:00.723Z,69.00
2023-04-18T12:56:27.799Z,69.69
2023-04-18T12:58:54.738Z,70.46
2023-04-18T13:01:21.918Z,70.97
2023-04-18T13:03:59.959Z,68.35
2023-04-18T13:06:35.702Z,69.88
2023-04-18T13:09:02.733Z,70.24
2023-04-18T13:11:29.861Z,71.49
2023-04-18T13:13:56.873Z,71.54
2023-04-18T13:16:23.901Z,71.47
2023-04-18T13:18:50.926Z,70.81
2023-04-18T13:21:18.157Z,70.65
2023-04-18T13:23:45.231Z,70.67
2023-04-18T13:26:12.182Z,71.09
2023-04-18T13:28:39.192Z,70.65
2023-04-18T13:31:06.626Z,71.71
2023-04-18T13:33:33.540Z,71.43
2023-04-18T13:36:01.218Z,72.03
2023-04-18T13:38:28.332Z,72.61
2023-04-18T13:41:04.778Z,71.43
2023-04-18T13:43:38.907Z,72.36
2023-04-18T13:46:06.146Z,72.49
2023-04-18T13:48:33.124Z,71.43
2023-04-18T13:51:00.221Z,66.12
2023-04-18T13:53:28.861Z,70.13
2023-04-18T13:55:57.136Z,70.82
2023-04-18T13:58:24.088Z,68.88
2023-04-18T14:00:51.047Z,66.57
2023-04-18T14:03:18.186Z,67.04
2023-04-18T14:05:45.225Z,67.14
2023-04-18T14:08:12.141Z,66.38
2023-04-18T14:10:39.206Z,68.93
2023-04-18T14:13:06.223Z,69.82
2023-04-18T14:15:33.185Z,69.60
2023-04-18T14:18:00.861Z,70.23
2023-04-18T14:20:34.176Z,70.07
2023-04-18T14:23:01.913Z,69.26
2023-04-18T14:25:29.875Z,68.65
2023-04-18T14:28:13.164Z,70.56
2023-04-18T14:30:40.492Z,67.84
2023-04-18T14:33:09.352Z,68.83
2023-04-18T14:35:36.473Z,68.95
2023-04-18T14:38:03.395Z,66.62
2023-04-18T14:40:32.578Z,68.21
2023-04-18T14:43:00.026Z,68.11
2023-04-18T14:45:27.049Z,68.56
2023-04-18T14:47:55.759Z,69.31
2023-04-18T14:50:22.856Z,66.16
2023-04-18T14:52:49.824Z,67.50
2023-04-18T14:55:16.921Z,67.23
2023-04-18T14:57:44.111Z,66.09
2023-04-18T15:00:12.584Z,63.14
2023-04-18T15:02:39.949Z,62.98
2023-04-18T15:05:10.224Z,64.97
2023-04-18T15:07:37.897Z,67.29
2023-04-18T15:10:05.922Z,67.10
2023-04-18T15:12:33.041Z,67.85
2023-04-18T15:15:00.384Z,67.69
2023-04-18T15:17:27.786Z,67.56
2023-04-18T15:19:54.789Z,68.04
2023-04-18T15:22:21.751Z,67.81
2023-04-18T15:24:48.679Z,67.76
2023-04-18T15:27:15.606Z,67.23
2023-04-18T15:29:42.579Z,66.57
2023-04-18T15:32:10.108Z,68.24
2023-04-18T15:34:37.095Z,68.53
2023-04-18T15:37:04.443Z,67.45
2023-04-18T15:39:31.350Z,68.06
2023-04-18T15:41:58.256Z,68.30
2023-04-18T15:44:25.205Z,67.83
2023-04-18T15:46:52.199Z,68.54
2023-04-18T15:49:19.176Z,68.06
2023-04-18T15:51:46.125Z,67.92
2023-04-18T15:54:13.243Z,68.66
2023-04-18T15:56:41.915Z,68.01
2023-04-18T15:59:10.880Z,67.72
2023-04-18T16:01:37.889Z,67.66
2023-04-18T16:04:04.997Z,67.31
2023-04-18T16:06:31.997Z,65.13
2023-04-18T16:08:58.926Z,66.56
2023-04-18T16:11:26.267Z,66.36
2023-04-18T16:13:55.919Z,67.08
2023-04-18T16:16:22.894Z,66.75
2023-04-18T16:18:49.929Z,66.57
2023-04-18T16:21:16.955Z,65.71
2023-04-18T16:23:44.067Z,65.69
2023-04-18T16:26:11.046Z,65.74
2023-04-18T16:28:37.976Z,65.24
2023-04-18T16:31:06.422Z,66.02
2023-04-18T16:33:33.528Z,66.91
2023-04-18T16:36:04.408Z,67.25
2023-04-18T16:38:31.713Z,67.16
2023-04-18T16:41:00.509Z,67.76
2023-04-18T16:43:30.975Z,67.44
2023-04-18T16:46:00.194Z,66.17
2023-04-18T16:48:28.856Z,67.01
2023-04-18T16:50:56.344Z,67.09
2023-04-18T16:53:24.094Z,66.94
2023-04-18T16:55:52.152Z,66.66
2023-04-18T16:58:20.108Z,66.77
2023-04-18T17:00:47.493Z,66.14
2023-04-18T17:03:14.535Z,66.46
2023-04-18T17:05:41.555Z,66.17
2023-04-18T17:08:08.598Z,66.72
2023-04-18T17:10:35.545Z,65.98
2023-04-18T17:13:03.611Z,65.84
2023-04-18T17:15:30.860Z,64.23
2023-04-18T17:18:00.162Z,64.66
2023-04-18T17:20:28.371Z,65.68
2023-04-18T17:22:57.147Z,65.60
2023-04-18T17:25:24.088Z,65.78
2023-04-18T17:27:51.050Z,65.80
2023-04-18T17:30:18.111Z,65.66
2023-04-18T17:32:47.905Z,65.84
2023-04-18T17:35:14.898Z,66.19
2023-04-18T17:37:45.246Z,66.40
2023-04-18T17:40:13.039Z,66.29
2023-04-18T17:42:40.182Z,65.82
2023-04-18T17:45:09.346Z,66.07
2023-04-18T17:47:36.653Z,65.68
2023-04-18T17:50:07.445Z,65.71
2023-04-18T17:52:34.394Z,65.98
2023-04-18T17:55:04.122Z,65.51
2023-04-18T17:57:33.432Z,65.97
2023-04-18T18:00:00.442Z,65.46
2023-04-18T18:02:28.353Z,65.72
2023-04-18T18:04:56.318Z,66.30
2023-04-18T18:07:23.362Z,66.16
2023-04-18T18:09:50.368Z,65.94
2023-04-18T18:12:17.265Z,66.05
2023-04-18T18:14:44.210Z,65.88
2023-04-18T18:17:11.500Z,65.99
2023-04-18T18:19:38.496Z,65.87
2023-04-18T18:22:05.553Z,65.42
2023-04-18T18:24:32.503Z,65.71
2023-04-18T18:26:59.753Z,65.72
2023-04-18T18:29:26.675Z,65.53
2023-04-18T18:31:53.628Z,66.12
2023-04-18T18:34:21.452Z,65.87
2023-04-18T18:36:48.572Z,65.78
2023-04-18T18:39:16.591Z,66.07
2023-04-18T18:41:43.686Z,65.91
2023-04-18T18:44:11.485Z,65.90
2023-04-18T18:46:38.629Z,66.13
2023-04-18T18:49:05.665Z,65.81
2023-04-18T18:51:32.821Z,66.02
2023-04-18T18:53:59.882Z,65.88
2023-04-18T18:56:26.942Z,66.24
2023-04-18T18:58:57.403Z,65.54
2023-04-18T19:01:24.474Z,65.93
2023-04-18T19:03:51.601Z,65.98
2023-04-18T19:06:18.647Z,65.86
2023-04-18T19:08:45.571Z,66.19
2023-04-18T19:11:12.785Z,66.33
2023-04-18T19:13:39.814Z,66.22
2023-04-18T19:16:06.932Z,66.03
2023-04-18T19:18:33.955Z,66.38
2023-04-18T19:21:00.896Z,65.94
2023-04-18T19:23:28.324Z,66.16
2023-04-18T19:25:55.426Z,66.12
2023-04-18T19:28:25.901Z,66.27
2023-04-18T19:30:53.155Z,65.51
2023-04-18T19:33:21.083Z,66.38
2023-04-18T19:35:48.017Z,66.16
2023-04-18T19:38:14.965Z,66.35
2023-04-18T19:40:41.959Z,65.91
2023-04-18T19:43:09.080Z,66.33
2023-04-18T19:45:36.140Z,66.39
2023-04-18T19:48:03.783Z,65.92
2023-04-18T19:50:31.211Z,66.53
2023-04-18T19:52:58.499Z,66.12
2023-04-18T19:55:25.895Z,66.11
2023-04-18T19:57:56.647Z,66.58
2023-04-18T20:00:23.598Z,65.83
2023-04-18T20:02:50.948Z,66.29
2023-04-18T20:05:18.588Z,66.17
2023-04-18T20:07:45.858Z,66.29
2023-04-18T20:10:13.050Z,66.35
2023-04-18T20:12:40.128Z,66.29
2023-04-18T20:15:08.278Z,66.19
2023-04-18T20:17:35.281Z,66.46
2023-04-18T20:20:02.646Z,66.28
2023-04-18T20:22:29.708Z,66.18
2023-04-18T20:24:57.150Z,65.86
2023-04-18T20:27:24.213Z,66.22
2023-04-18T20:29:51.466Z,66.11
2023-04-18T20:32:18.509Z,66.28
2023-04-18T20:34:46.543Z,66.52
2023-04-18T20:37:18.536Z,66.56
2023-04-18T20:39:45.549Z,66.09
2023-04-18T20:42:14.471Z,66.27
2023-04-18T20:44:46.890Z,66.19
2023-04-18T20:47:15.785Z,66.61
2023-04-18T20:49:43.005Z,66.39
2023-04-18T20:52:09.988Z,66.78
2023-04-18T20:54:37.012Z,66.34
2023-04-18T20:57:04.012Z,66.32
2023-04-18T20:59:30.957Z,66.37
2023-04-18T21:01:58.084Z,66.88
2023-04-18T21:04:25.369Z,66.39
2023-04-18T21:06:52.462Z,66.31
2023-04-18T21:09:19.471Z,66.48
2023-04-18T21:11:46.503Z,66.63
2023-04-18T21:14:13.700Z,66.39
2023-04-18T21:16:40.983Z,66.79
2023-04-18T21:19:08.493Z,66.50
2023-04-18T21:21:35.453Z,66.88
2023-04-18T21:24:02.746Z,66.92
2023-04-18T21:26:29.752Z,66.63
2023-04-18T21:29:02.485Z,66.63
2023-04-18T21:31:32.639Z,66.98
2023-04-18T21:34:02.613Z,66.63
2023-04-18T21:36:31.124Z,67.03
2023-04-18T21:39:00.659Z,66.79
2023-04-18T21:41:27.948Z,66.84
2023-04-18T21:43:54.925Z,67.09
2023-04-18T21:46:22.039Z,66.52
2023-04-18T21:48:49.274Z,66.62
2023-04-18T21:51:17.318Z,66.90
2023-04-18T21:53:44.585Z,66.73
2023-04-18T21:56:11.882Z,66.98
2023-04-18T21:58:38.824Z,66.83
2023-04-18T22:01:05.936Z,67.17
2023-04-18T22:03:34.029Z,67.19
2023-04-18T22:06:01.864Z,66.88
2023-04-18T22:08:29.453Z,66.75
2023-04-18T22:10:58.891Z,66.80
2023-04-18T22:13:32.704Z,66.69
2023-04-18T22:16:04.692Z,66.73
2023-04-18T22:18:33.961Z,66.65
2023-04-18T22:21:03.068Z,66.79
2023-04-18T22:23:30.789Z,67.34
2023-04-18T22:25:57.775Z,67.21
2023-04-18T22:28:24.844Z,67.06
2023-04-18T22:30:51.833Z,67.24
2023-04-18T22:33:18.767Z,67.10
2023-04-18T22:35:47.844Z,67.22
2023-04-18T22:38:14.777Z,67.32
2023-04-18T22:40:41.809Z,67.04
2023-04-18T22:43:08.797Z,66.99
2023-04-18T22:45:35.773Z,67.42
2023-04-18T22:48:02.733Z,67.21
2023-04-18T22:50:30.183Z,67.09
2023-04-18T22:52:57.359Z,66.90
2023-04-18T22:55:24.361Z,67.26
2023-04-18T22:57:51.352Z,67.03
2023-04-18T23:00:18.683Z,67.33
2023-04-18T23:02:45.693Z,66.85
2023-04-18T23:05:15.367Z,67.18
2023-04-18T23:07:42.309Z,67.36
2023-04-18T23:10:10.005Z,66.84
2023-04-18T23:12:36.941Z,67.22
2023-04-18T23:15:04.410Z,67.11
2023-04-18T23:17:31.724Z,67.16
2023-04-18T23:19:58.664Z,67.10
2023-04-18T23:22:25.656Z,67.68
2023-04-18T23:24:52.780Z,67.50
2023-04-18T23:27:19.742Z,67.03
2023-04-18T23:29:50.162Z,67.14
2023-04-18T23:32:17.102Z,67.53
2023-04-18T23:34:45.857Z,67.52
2023-04-18T23:37:12.846Z,67.31
2023-04-18T23:39:39.754Z,67.80
2023-04-18T23:42:07.180Z,67.26
2023-04-18T23:44:34.139Z,67.18
2023-04-18T23:47:01.114Z,67.03
2023-04-18T23:49:28.371Z,67.46
2023-04-18T23:51:55.357Z,67.65
2023-04-18T23:54:22.339Z,67.68
2023-04-18T23:56:49.343Z,67.64
2023-04-18T23:59:16.315Z,67.86
